Time;durP1;ratioP1;P1;durP2;ratioP2;P2;SDS_P1;SDS_P2;PMS_P1;PMS_P2;Temp;Humidity;BMP_temperature;BMP_pressure;BME280_temperature;BME280_humidity;BME280_pressure;Samples;Min_cycle;Max_cycle;Signal;HPM_P1;HPM_P2
2022/08/17 00:01:00;;;;;;;11.60;6.70;;;;;;;21.42;89.40;94447.59;6112680;23;20200;-74
2022/08/17 00:03:28;;;;;;;13.48;6.53;;;;;;;21.42;89.61;94444.16;6111264;23;20207;-74
2022/08/17 00:05:58;;;;;;;11.93;6.63;;;;;;;21.39;89.72;94444.72;6113438;23;20184;-74
2022/08/17 00:08:28;;;;;;;10.35;6.10;;;;;;;21.40;90.38;94451.59;6112976;23;20233;-73
2022/08/17 00:10:58;;;;;;;14.25;6.32;;;;;;;21.40;91.78;94441.81;6113673;23;20180;-73
2022/08/17 00:13:28;;;;;;;12.15;6.25;;;;;;;21.65;90.61;94445.06;6111426;23;20906;-73
2022/08/17 00:15:58;;;;;;;12.60;5.60;;;;;;;21.69;90.07;94444.22;6112820;23;20191;-73
2022/08/17 00:18:25;;;;;;;13.18;6.18;;;;;;;21.62;90.39;94438.50;6112188;23;20164;-73
2022/08/17 00:20:53;;;;;;;9.18;6.38;;;;;;;21.54;91.07;94439.19;6112523;23;20196;-73
2022/08/17 00:23:20;;;;;;;13.82;6.75;;;;;;;21.44;92.03;94448.06;6111268;23;20179;-72
2022/08/17 00:25:47;;;;;;;9.63;6.13;;;;;;;21.40;90.71;94444.47;6112529;23;20214;-72
2022/08/17 00:28:17;;;;;;;12.27;6.57;;;;;;;21.36;92.69;94440.03;6113165;23;20156;-73
2022/08/17 00:30:45;;;;;;;13.30;6.47;;;;;;;21.24;93.73;94434.44;6112252;23;20175;-72
2022/08/17 00:33:15;;;;;;;11.27;6.57;;;;;;;21.27;93.95;94444.44;6112053;23;20195;-72
2022/08/17 00:35:44;;;;;;;12.38;6.30;;;;;;;21.24;93.67;94445.00;6111260;23;20526;-73
2022/08/17 00:38:11;;;;;;;13.20;6.75;;;;;;;21.18;94.58;94440.88;6112618;23;20168;-73
2022/08/17 00:40:39;;;;;;;18.60;7.15;;;;;;;21.06;95.89;94441.28;6113208;23;20196;-73
2022/08/17 00:43:20;;;;;;;17.15;6.70;;;;;;;21.04;95.86;94432.09;6113059;23;20173;-73
2022/08/17 00:45:48;;;;;;;21.27;6.82;;;;;;;21.09;95.68;94443.38;6111581;23;20161;-73
2022/08/17 00:48:15;;;;;;;15.40;6.68;;;;;;;21.01;96.03;94430.00;6111263;23;20852;-74
2022/08/17 00:50:49;;;;;;;14.80;6.90;;;;;;;20.94;96.63;94433.81;6112292;23;20661;-74
2022/08/17 00:53:16;;;;;;;12.57;6.78;;;;;;;20.89;97.21;94428.56;6111693;23;20631;-74
2022/08/17 00:55:43;;;;;;;12.80;6.68;;;;;;;20.83;97.30;94432.38;6111442;23;20176;-74
2022/08/17 00:58:10;;;;;;;13.82;6.78;;;;;;;20.83;97.58;94428.94;6113347;23;20237;-73
2022/08/17 01:00:43;;;;;;;10.85;7.18;;;;;;;20.76;97.69;94431.16;6112363;23;20203;-74
2022/08/17 01:03:18;;;;;;;11.57;6.45;;;;;;;20.76;97.94;94429.31;6112460;23;20226;-74
2022/08/17 01:05:48;;;;;;;11.02;6.45;;;;;;;20.68;98.07;94432.59;6111704;23;20164;-73
2022/08/17 01:08:19;;;;;;;12.65;6.93;;;;;;;20.68;98.19;94445.00;6111646;23;20516;-73
2022/08/17 01:10:49;;;;;;;10.95;6.50;;;;;;;20.64;98.80;94441.34;6111441;23;20286;-73
2022/08/17 01:13:17;;;;;;;14.18;6.85;;;;;;;20.60;99.48;94440.38;6112028;23;20157;-73
2022/08/17 01:15:50;;;;;;;11.15;7.15;;;;;;;20.58;99.95;94435.38;6112049;23;20165;-72
2022/08/17 01:18:17;;;;;;;14.07;6.85;;;;;;;20.59;100.00;94438.78;6112671;23;20168;-73
2022/08/17 01:20:49;;;;;;;12.55;6.50;;;;;;;20.43;100.00;94434.81;6113522;23;20246;-73
2022/08/17 01:23:19;;;;;;;14.30;7.30;;;;;;;20.46;100.00;94436.88;6112253;23;20160;-73
2022/08/17 01:25:47;;;;;;;11.88;7.05;;;;;;;20.47;100.00;94441.84;6112610;23;20203;-73
2022/08/17 01:28:15;;;;;;;12.32;6.82;;;;;;;20.43;100.00;94438.22;6113405;23;20614;-73
2022/08/17 01:30:42;;;;;;;9.85;6.55;;;;;;;20.34;100.00;94432.81;6112393;23;20173;-73
2022/08/17 01:33:10;;;;;;;12.23;6.97;;;;;;;20.33;100.00;94430.44;6112862;23;20175;-73
2022/08/17 01:35:37;;;;;;;12.48;6.50;;;;;;;20.21;100.00;94425.53;6111845;23;20172;-73
2022/08/17 01:38:04;;;;;;;10.70;6.97;;;;;;;20.19;100.00;94432.16;6113542;23;20171;-73
2022/08/17 01:40:36;;;;;;;15.40;7.50;;;;;;;20.14;100.00;94433.03;6113113;23;20232;-73
2022/08/17 01:43:08;;;;;;;10.75;7.07;;;;;;;20.15;100.00;94429.28;6113583;23;20160;-73
2022/08/17 01:45:43;;;;;;;12.85;6.85;;;;;;;20.11;100.00;94430.16;6111059;23;20167;-73
2022/08/17 01:48:11;;;;;;;20.63;7.47;;;;;;;20.11;100.00;94420.38;6113551;23;20604;-73
2022/08/17 01:50:40;;;;;;;12.10;6.65;;;;;;;20.02;100.00;94423.94;6112791;23;20179;-73
2022/08/17 01:53:12;;;;;;;17.92;7.13;;;;;;;20.04;100.00;94411.22;6113112;23;20504;-73
2022/08/17 01:55:45;;;;;;;11.65;6.93;;;;;;;19.97;100.00;94422.13;6112295;23;20164;-73
2022/08/17 01:58:12;;;;;;;9.32;6.93;;;;;;;19.89;100.00;94422.75;6112893;23;20198;-73
2022/08/17 02:00:42;;;;;;;9.70;6.30;;;;;;;19.87;100.00;94424.09;6112734;23;20203;-73
2022/08/17 02:03:09;;;;;;;9.90;6.93;;;;;;;19.88;100.00;94426.47;6112749;23;20234;-73
2022/08/17 02:05:36;;;;;;;15.95;7.20;;;;;;;19.87;100.00;94434.66;6111594;23;20173;-73
2022/08/17 02:08:05;;;;;;;12.55;6.72;;;;;;;19.81;100.00;94431.28;6113621;23;20179;-73
2022/08/17 02:10:32;;;;;;;12.35;6.90;;;;;;;19.83;100.00;94432.56;6113109;23;20784;-74
2022/08/17 02:13:00;;;;;;;13.80;7.32;;;;;;;19.88;100.00;94437.03;6112229;23;20255;-73
2022/08/17 02:15:27;;;;;;;12.75;7.00;;;;;;;19.84;100.00;94441.28;6110437;23;20183;-73
2022/08/17 02:17:55;;;;;;;12.88;7.20;;;;;;;19.73;100.00;94439.81;6112866;23;20861;-73
2022/08/17 02:20:22;;;;;;;13.40;6.95;;;;;;;19.73;100.00;94434.53;6112713;23;20176;-73
2022/08/17 02:22:50;;;;;;;15.00;7.30;;;;;;;19.71;100.00;94441.94;6112777;23;20196;-73
2022/08/17 02:25:20;;;;;;;13.60;7.10;;;;;;;19.68;100.00;94434.59;6111064;23;20623;-73
2022/08/17 02:27:47;;;;;;;9.45;7.25;;;;;;;19.66;100.00;94436.69;6110358;23;20682;-73
2022/08/17 02:30:16;;;;;;;10.93;7.13;;;;;;;19.65;100.00;94435.16;6111444;23;20174;-73
2022/08/17 02:32:43;;;;;;;17.83;7.43;;;;;;;19.68;100.00;94439.88;6112323;23;20168;-73
2022/08/17 02:35:11;;;;;;;13.13;7.20;;;;;;;19.76;100.00;94445.31;6111812;23;20179;-73
2022/08/17 02:37:38;;;;;;;16.58;7.80;;;;;;;19.74;100.00;94428.19;6111847;23;20599;-73
2022/08/17 02:40:06;;;;;;;12.55;7.40;;;;;;;19.69;100.00;94436.16;6113250;23;20623;-73
2022/08/17 02:42:35;;;;;;;18.95;8.10;;;;;;;19.58;100.00;94424.13;6111224;23;20307;-72
2022/08/17 02:45:04;;;;;;;21.08;7.57;;;;;;;19.56;100.00;94440.25;6112123;23;20172;-73
2022/08/17 02:47:32;;;;;;;18.52;8.23;;;;;;;19.52;100.00;94441.84;6111509;23;20683;-73
2022/08/17 02:49:59;;;;;;;12.07;7.43;;;;;;;19.47;100.00;94441.13;6112721;23;20179;-74
2022/08/17 02:52:30;;;;;;;12.88;7.15;;;;;;;19.48;100.00;94442.69;6112814;23;20169;-73
2022/08/17 02:54:56;;;;;;;19.98;7.32;;;;;;;19.43;100.00;94442.72;6112828;23;20165;-74
2022/08/17 02:57:23;;;;;;;13.13;7.88;;;;;;;19.40;100.00;94440.66;6110184;23;20176;-73
2022/08/17 02:59:50;;;;;;;14.60;7.57;;;;;;;19.47;100.00;94443.75;6112036;23;20794;-73
2022/08/17 03:02:17;;;;;;;16.83;7.93;;;;;;;19.46;100.00;94444.81;6111580;23;20203;-73
2022/08/17 03:04:45;;;;;;;20.13;8.93;;;;;;;19.51;100.00;94450.06;6111490;23;20172;-74
2022/08/17 03:07:12;;;;;;;21.10;8.05;;;;;;;19.42;100.00;94446.44;6111915;23;20234;-73
2022/08/17 03:09:39;;;;;;;18.45;7.80;;;;;;;19.35;100.00;94449.38;6111093;23;20176;-73
2022/08/17 03:12:07;;;;;;;15.60;8.13;;;;;;;19.31;100.00;94443.06;6112433;23;20164;-73
2022/08/17 03:14:37;;;;;;;12.40;7.68;;;;;;;19.33;100.00;94455.97;6111669;23;20179;-73
2022/08/17 03:17:04;;;;;;;19.80;8.07;;;;;;;19.27;100.00;94463.16;6111630;23;20234;-73
2022/08/17 03:19:31;;;;;;;22.98;8.63;;;;;;;19.08;100.00;94455.13;6111219;23;20435;-74
2022/08/17 03:21:59;;;;;;;22.20;8.85;;;;;;;19.27;100.00;94463.16;6112859;23;20207;-74
2022/08/17 03:24:26;;;;;;;24.42;9.00;;;;;;;19.35;100.00;94465.19;6111390;23;20207;-74
2022/08/17 03:26:53;;;;;;;16.30;8.73;;;;;;;19.36;100.00;94458.06;6111465;23;20212;-74
2022/08/17 03:29:19;;;;;;;19.80;8.75;;;;;;;19.37;100.00;94462.25;6110733;23;20229;-74
2022/08/17 03:31:46;;;;;;;23.13;8.73;;;;;;;19.33;100.00;94463.88;6110559;23;20253;-74
2022/08/17 03:34:13;;;;;;;20.52;9.43;;;;;;;19.28;100.00;94465.50;6112806;23;20172;-73
2022/08/17 03:36:40;;;;;;;21.52;8.57;;;;;;;19.28;100.00;94460.22;6112753;23;20176;-73
2022/08/17 03:39:09;;;;;;;23.45;9.82;;;;;;;19.27;100.00;94468.41;6112014;23;20176;-73
2022/08/17 03:41:36;;;;;;;16.17;8.90;;;;;;;19.22;100.00;94471.06;6111264;23;20200;-72
2022/08/17 03:44:04;;;;;;;20.15;8.40;;;;;;;19.11;100.00;94459.03;6112633;23;20181;-72
2022/08/17 03:57:31;;;;;;;18.95;8.95;;;;;;;18.93;100.00;94471.03;6112211;23;20666;-73
2022/08/17 03:59:58;;;;;;;16.55;8.65;;;;;;;19.03;100.00;94481.50;6113241;23;20188;-73
2022/08/17 04:02:28;;;;;;;21.10;9.05;;;;;;;19.00;100.00;94474.16;6112904;23;20196;-72
2022/08/17 04:04:56;;;;;;;17.52;8.65;;;;;;;18.92;100.00;94476.56;6112618;23;20171;-72
2022/08/17 04:07:26;;;;;;;15.63;9.25;;;;;;;18.92;100.00;94473.94;6112173;23;20176;-73
2022/08/17 04:09:56;;;;;;;17.15;8.90;;;;;;;18.93;100.00;94483.44;6112558;23;20680;-73
2022/08/17 04:12:24;;;;;;;17.73;9.10;;;;;;;18.95;100.00;94487.34;6112886;23;20167;-74
2022/08/17 04:14:51;;;;;;;23.05;8.88;;;;;;;18.98;100.00;94478.13;6112650;23;20169;-74
2022/08/17 04:17:17;;;;;;;23.83;9.48;;;;;;;18.98;100.00;94486.03;6112460;23;20179;-74
2022/08/17 04:19:44;;;;;;;21.95;8.13;;;;;;;18.97;100.00;94487.06;6112498;23;20640;-73
2022/08/17 04:22:11;;;;;;;16.50;8.55;;;;;;;19.05;100.00;94497.81;6113635;23;20206;-73
2022/08/17 04:24:38;;;;;;;18.02;7.85;;;;;;;19.11;100.00;94501.19;6112517;23;20177;-74
2022/08/17 04:27:06;;;;;;;18.17;8.30;;;;;;;19.07;100.00;94500.19;6112587;23;20745;-74
2022/08/17 04:29:33;;;;;;;12.55;7.97;;;;;;;19.06;100.00;94504.66;6111004;23;20187;-73
2022/08/17 04:32:01;;;;;;;18.80;8.55;;;;;;;19.14;100.00;94505.91;6113593;23;20168;-73
2022/08/17 04:34:28;;;;;;;19.95;9.57;;;;;;;19.10;100.00;94503.06;6112974;23;20697;-73
2022/08/17 04:36:55;;;;;;;17.50;9.35;;;;;;;19.13;100.00;94514.91;6113149;23;20575;-73
2022/08/17 04:39:23;;;;;;;17.30;9.40;;;;;;;19.12;100.00;94516.75;6111547;23;20172;-73
2022/08/17 04:44:44;;;;;;;24.25;9.82;;;;;;;19.13;100.00;94525.44;6164497;23;20174;-74
2022/08/17 04:47:11;;;;;;;20.02;9.05;;;;;;;19.16;100.00;94517.00;6111498;23;20176;-74
2022/08/17 04:49:37;;;;;;;31.90;9.73;;;;;;;19.16;100.00;94523.03;6111458;23;20172;-73
2022/08/17 04:52:05;;;;;;;21.77;8.52;;;;;;;19.17;100.00;94524.59;6113610;23;20168;-73
2022/08/17 04:54:31;;;;;;;18.10;8.30;;;;;;;19.24;100.00;94527.72;6112664;23;20908;-73
2022/08/17 04:56:58;;;;;;;21.33;8.88;;;;;;;19.28;100.00;94530.59;6112823;23;20183;-73
2022/08/17 04:59:25;;;;;;;19.27;9.00;;;;;;;19.31;100.00;94521.38;6111143;23;20483;-76
2022/08/17 05:01:53;;;;;;;15.60;8.27;;;;;;;19.37;100.00;94528.94;6111950;23;20210;-73
2022/08/17 05:04:22;;;;;;;13.20;8.15;;;;;;;19.43;100.00;94529.72;6112429;23;20179;-73
2022/08/17 05:06:49;;;;;;;17.90;8.32;;;;;;;19.44;100.00;94528.66;6111350;23;20168;-73
2022/08/17 05:09:17;;;;;;;16.15;8.77;;;;;;;19.48;100.00;94522.56;6110706;23;20172;-73
2022/08/17 05:11:44;;;;;;;17.80;8.55;;;;;;;19.47;100.00;94520.22;6111276;23;20574;-73
2022/08/17 05:14:11;;;;;;;17.35;8.60;;;;;;;19.53;100.00;94522.53;6112802;23;20177;-74
2022/08/17 05:16:38;;;;;;;14.45;9.10;;;;;;;19.78;100.00;94518.88;6112439;23;20172;-73
2022/08/17 05:19:06;;;;;;;18.75;8.30;;;;;;;19.99;99.73;94530.03;6113453;23;20172;-73
2022/08/17 05:21:33;;;;;;;18.20;8.60;;;;;;;20.04;98.93;94528.13;6111393;23;20589;-73
2022/08/17 05:23:59;;;;;;;21.02;9.27;;;;;;;20.07;98.21;94527.56;6113446;23;20172;-73
2022/08/17 05:26:27;;;;;;;15.18;8.48;;;;;;;20.06;97.69;94530.47;6112471;23;20710;-73
2022/08/17 05:28:56;;;;;;;17.48;9.75;;;;;;;20.07;98.21;94529.41;6112102;23;21086;-73
2022/08/17 05:31:22;;;;;;;18.25;9.50;;;;;;;20.04;98.64;94520.19;6111827;23;20255;-72
2022/08/17 05:33:49;;;;;;;15.35;9.35;;;;;;;20.04;99.18;94528.13;6111613;23;20191;-72
2022/08/17 05:36:18;;;;;;;13.88;9.50;;;;;;;19.97;98.72;94527.66;6112444;23;20505;-72
2022/08/17 05:38:45;;;;;;;18.45;10.38;;;;;;;19.92;98.39;94535.63;6113188;23;20239;-72
2022/08/17 05:41:12;;;;;;;18.52;10.32;;;;;;;19.93;98.34;94529.28;6112502;23;20174;-73
2022/08/17 05:43:41;;;;;;;16.42;9.63;;;;;;;19.96;98.92;94528.72;6109983;23;20250;-73
2022/08/17 05:46:14;;;;;;;18.88;8.90;;;;;;;20.02;98.56;94535.53;6113238;23;20172;-74
2022/08/17 05:48:43;;;;;;;17.48;9.20;;;;;;;20.03;98.83;94529.19;6112273;23;20165;-73
2022/08/17 05:51:36;;;;;;;14.55;9.10;;;;;;;20.07;98.63;94524.94;6111904;23;20177;-74
2022/08/17 05:54:28;;;;;;;20.38;9.82;;;;;;;20.09;98.74;94533.34;6113232;23;20156;-72
2022/08/17 05:57:23;;;;;;;15.00;9.05;;;;;;;20.27;97.94;94530.00;6111595;23;20164;-73
2022/08/17 05:59:58;;;;;;;14.18;9.07;;;;;;;20.70;94.85;94532.69;6111899;23;20215;-73
2022/08/17 06:02:37;;;;;;;17.77;9.07;;;;;;;20.88;93.44;94531.91;6111775;23;20187;-74
2022/08/17 06:05:17;;;;;;;13.25;8.40;;;;;;;21.09;92.59;94529.81;6112325;23;20534;-73
2022/08/17 06:07:53;;;;;;;17.63;8.90;;;;;;;21.10;92.04;94531.38;6111909;23;20157;-89
2022/08/17 06:10:30;;;;;;;14.82;8.25;;;;;;;21.07;92.21;94530.06;6116820;23;20608;-78
2022/08/17 06:13:08;;;;;;;18.00;9.60;;;;;;;21.08;93.00;94533.53;6111605;23;20217;-77
2022/08/17 06:15:49;;;;;;;13.07;9.10;;;;;;;21.09;92.65;94535.91;6111473;23;20271;-77
2022/08/17 06:18:17;;;;;;;15.07;9.30;;;;;;;21.12;91.57;94526.59;6112869;23;20225;-77
2022/08/17 06:20:52;;;;;;;15.27;9.23;;;;;;;21.09;92.04;94522.69;6111444;23;20580;-76
2022/08/17 06:23:26;;;;;;;14.38;9.05;;;;;;;21.12;92.30;94537.97;6110596;23;20179;-76
2022/08/17 06:25:58;;;;;;;16.73;8.85;;;;;;;21.14;91.89;94530.53;6110851;23;20210;-76
2022/08/17 06:28:31;;;;;;;14.45;8.63;;;;;;;21.24;91.12;94533.00;6110439;23;20172;-76
2022/08/17 06:31:07;;;;;;;14.63;8.80;;;;;;;21.21;91.25;94525.66;6112153;23;20164;-75
2022/08/17 06:33:38;;;;;;;11.20;8.30;;;;;;;21.24;91.61;94532.25;6110579;23;20604;-75
2022/08/17 06:36:18;;;;;;;14.75;8.60;;;;;;;21.23;91.09;94536.75;6112591;23;20186;-76
2022/08/17 06:38:57;;;;;;;15.85;9.18;;;;;;;21.29;90.41;94534.81;6112582;23;20160;-77
2022/08/17 06:41:33;;;;;;;19.02;9.82;;;;;;;21.42;90.24;94528.78;6111140;23;20167;-75
2022/08/17 06:44:14;;;;;;;18.17;9.00;;;;;;;21.50;88.92;94528.13;6112156;23;20587;-76
2022/08/17 06:46:47;;;;;;;17.90;8.48;;;;;;;21.49;89.17;94527.34;6113123;23;20156;-75
2022/08/17 06:49:25;;;;;;;17.25;8.52;;;;;;;21.55;88.95;94522.78;6110196;23;20163;-75
2022/08/17 06:52:02;;;;;;;21.77;8.10;;;;;;;21.59;88.29;94521.09;6112348;23;20709;-76
2022/08/17 06:54:44;;;;;;;12.98;7.82;;;;;;;21.71;87.04;94521.44;6111939;23;20160;-77
2022/08/17 06:57:19;;;;;;;12.85;8.02;;;;;;;21.72;87.24;94520.38;6111742;23;20263;-77
2022/08/17 06:59:53;;;;;;;17.45;8.48;;;;;;;21.76;87.37;94516.06;6113331;23;20160;-73
2022/08/17 07:02:37;;;;;;;20.08;8.07;;;;;;;21.73;87.37;94498.09;6112956;23;20561;-84
2022/08/17 07:05:07;;;;;;;17.15;8.15;;;;;;;21.76;86.99;94497.53;6112842;23;20157;-75
2022/08/17 07:10:42;;;;;;;14.48;7.60;;;;;;;22.07;86.02;94526.94;6113635;23;20183;-76
2022/08/17 07:13:26;;;;;;;16.63;7.70;;;;;;;22.20;85.66;94520.88;6112826;23;20152;-78
2022/08/17 07:16:07;;;;;;;20.35;8.05;;;;;;;22.27;85.37;94523.13;6115067;23;20611;-77
2022/08/17 07:18:36;;;;;;;19.98;7.65;;;;;;;22.45;84.03;94522.25;6115008;23;20532;-76
2022/08/17 07:21:20;;;;;;;13.30;7.03;;;;;;;22.70;81.87;94524.41;6114581;23;20207;-76
2022/08/17 07:24:21;;;;;;;16.23;7.60;;;;;;;22.66;82.27;94514.69;6113263;23;20184;-76
2022/08/17 07:27:08;;;;;;;20.00;7.43;;;;;;;22.79;82.47;94527.16;6101030;23;20329;-78
2022/08/17 07:29:42;;;;;;;14.30;8.52;;;;;;;22.84;82.67;94527.84;6112392;23;20168;-79
2022/08/17 07:32:17;;;;;;;14.70;7.13;;;;;;;22.93;82.29;94533.22;6113402;23;20524;-77
2022/08/17 07:35:11;;;;;;;18.02;7.45;;;;;;;22.99;81.29;94524.06;6113220;23;20160;-77
2022/08/17 07:37:42;;;;;;;21.45;9.73;;;;;;;23.06;81.21;94519.13;6113021;23;20161;-79
2022/08/17 07:40:21;;;;;;;20.23;7.40;;;;;;;23.19;81.08;94526.28;6112896;23;20195;-78
2022/08/17 07:43:09;;;;;;;16.52;9.07;;;;;;;23.31;80.61;94528.41;6111895;23;20187;-77
2022/08/17 07:48:39;;;;;;;13.02;7.35;;;;;;;23.42;79.40;94527.91;6114223;23;20223;-78
2022/08/17 07:51:20;;;;;;;20.10;7.40;;;;;;;23.47;79.27;94522.47;6114178;23;20240;-79
2022/08/17 07:53:49;;;;;;;17.40;7.15;;;;;;;23.53;79.74;94518.63;6113338;23;20156;-76
2022/08/17 07:56:45;;;;;;;18.08;7.07;;;;;;;23.65;78.56;94521.50;6114147;23;20204;-79
2022/08/17 07:59:19;;;;;;;20.40;8.18;;;;;;;23.76;77.26;94511.41;6113684;23;20236;-76
2022/08/17 08:02:02;;;;;;;15.48;6.00;;;;;;;23.92;74.93;94509.97;6111862;23;20173;-75
2022/08/17 08:04:35;;;;;;;10.73;6.70;;;;;;;24.25;73.56;94516.53;6111290;23;20766;-74
2022/08/17 08:07:07;;;;;;;10.82;6.35;;;;;;;24.27;73.63;94513.59;6111811;23;20563;-73
2022/08/17 08:09:40;;;;;;;16.45;7.13;;;;;;;24.30;72.97;94515.63;6110575;23;20737;-74
2022/08/17 08:12:34;;;;;;;9.82;6.55;;;;;;;24.37;72.27;94513.31;6111225;23;20157;-78
2022/08/17 08:15:10;;;;;;;13.43;6.43;;;;;;;24.47;70.25;94510.38;6111903;23;20161;-77
2022/08/17 08:17:50;;;;;;;10.88;6.70;;;;;;;24.56;70.17;94513.06;6110979;23;20500;-81
2022/08/17 08:20:23;;;;;;;10.50;6.40;;;;;;;24.74;69.02;94512.00;6111167;23;20165;-82
2022/08/17 08:23:01;;;;;;;8.50;5.47;;;;;;;24.85;67.97;94513.31;6111940;23;20196;-75
2022/08/17 08:25:44;;;;;;;17.17;6.65;;;;;;;24.93;67.67;94507.25;6110683;23;20183;-81
2022/08/17 08:28:23;;;;;;;12.23;6.38;;;;;;;24.96;68.52;94505.81;6112917;23;20157;-82
2022/08/17 08:31:05;;;;;;;10.63;5.88;;;;;;;25.02;68.46;94504.59;6114136;23;20587;-78
2022/08/17 08:33:44;;;;;;;11.10;5.63;;;;;;;25.27;64.16;94504.59;6112997;23;20198;-79
2022/08/17 08:36:26;;;;;;;9.00;5.35;;;;;;;25.40;63.44;94497.53;6114716;23;20188;-80
2022/08/17 08:38:59;;;;;;;9.20;5.60;;;;;;;25.47;63.26;94494.41;6114306;23;20267;-78
2022/08/17 08:41:41;;;;;;;11.07;5.70;;;;;;;25.52;64.14;94486.28;6113016;23;20169;-79
2022/08/17 08:44:23;;;;;;;8.27;5.13;;;;;;;25.55;61.85;94490.97;6115308;23;20180;-83
2022/08/17 08:47:00;;;;;;;14.80;4.80;;;;;;;25.68;59.60;94490.81;6116527;23;20222;-86
2022/08/17 08:50:04;;;;;;;9.32;4.80;;;;;;;25.81;57.99;94497.03;6114292;23;20175;-85
2022/08/17 08:53:00;;;;;;;8.02;4.82;;;;;;;25.86;57.59;94500.31;6095081;23;20239;-87
2022/08/17 08:55:36;;;;;;;14.32;4.53;;;;;;;25.95;57.07;94486.97;6111527;23;21079;-80
2022/08/17 08:58:09;;;;;;;13.38;4.25;;;;;;;26.08;54.99;94488.66;6113239;23;20194;-80
2022/08/17 09:00:43;;;;;;;6.57;4.30;;;;;;;26.24;54.59;94494.25;6112793;23;20171;-79
2022/08/17 09:03:23;;;;;;;5.47;4.30;;;;;;;26.27;55.33;94489.09;6114283;23;20179;-82
2022/08/17 09:06:07;;;;;;;11.45;4.60;;;;;;;26.36;56.44;94486.38;6114655;23;20163;-83
2022/08/17 09:08:50;;;;;;;8.60;4.70;;;;;;;26.65;54.85;94490.94;6115782;23;20445;-84
2022/08/17 09:11:24;;;;;;;9.65;4.60;;;;;;;26.69;55.87;94497.19;6114979;23;20556;-85
2022/08/17 09:14:01;;;;;;;7.47;4.97;;;;;;;26.75;54.97;94493.25;6117779;23;20165;-89
2022/08/17 09:16:34;;;;;;;6.47;4.32;;;;;;;26.78;55.06;94489.94;6120309;23;20168;-90
2022/08/17 09:19:12;;;;;;;8.05;6.72;;;;;;;26.77;54.36;94494.47;6120255;23;20526;-89
2022/08/17 09:21:45;;;;;;;12.05;5.18;;;;;;;26.79;53.42;94494.97;6118187;23;20156;-89
2022/08/17 09:24:22;;;;;;;7.18;4.63;;;;;;;26.99;53.55;94496.88;6118366;23;20639;-90
2022/08/17 09:26:59;;;;;;;6.63;4.22;;;;;;;27.25;52.24;94512.69;6117484;23;20567;-90
2022/08/17 09:29:29;;;;;;;8.05;4.30;;;;;;;27.17;53.22;94486.84;6116655;23;20242;-90
2022/08/17 09:32:00;;;;;;;12.35;4.35;;;;;;;27.24;53.15;94497.03;6118579;23;20176;-89
2022/08/17 09:34:33;;;;;;;15.40;4.68;;;;;;;27.36;53.15;94494.41;6118333;23;20196;-89
2022/08/17 09:37:15;;;;;;;8.48;4.78;;;;;;;27.44;52.13;94499.72;6118776;23;20163;-90
2022/08/17 09:39:46;;;;;;;9.60;4.93;;;;;;;27.56;52.72;94496.31;6118231;23;20507;-88
2022/08/17 09:42:21;;;;;;;9.65;4.97;;;;;;;27.64;52.54;94490.09;6117288;23;20157;-86
2022/08/17 09:44:56;;;;;;;9.38;4.82;;;;;;;27.76;51.68;94495.50;6119127;23;20180;-90
2022/08/17 09:47:30;;;;;;;14.85;4.63;;;;;;;27.92;50.12;94480.38;6119831;23;20160;-91
2022/08/17 09:50:03;;;;;;;8.73;4.60;;;;;;;27.99;50.72;94485.97;6118721;23;20251;-88
2022/08/17 09:52:31;;;;;;;8.77;4.40;;;;;;;28.25;48.98;94490.28;6119026;23;20163;-87
2022/08/17 09:55:00;;;;;;;9.02;4.72;;;;;;;28.36;49.24;94491.38;6117903;23;20176;-89
2022/08/17 09:57:47;;;;;;;7.45;4.80;;;;;;;28.57;49.64;94486.72;6117411;23;20233;-88
2022/08/17 10:00:22;;;;;;;6.97;4.53;;;;;;;28.61;49.41;94477.69;6119254;23;20179;-88
2022/08/17 10:03:00;;;;;;;10.10;4.57;;;;;;;28.80;48.94;94479.03;6118848;23;20167;-86
2022/08/17 10:05:37;;;;;;;9.55;4.53;;;;;;;29.00;48.67;94480.78;6128281;23;20181;-89
2022/08/17 10:08:12;;;;;;;6.95;4.35;;;;;;;29.04;46.35;94479.75;6124059;23;20188;-82
2022/08/17 10:10:58;;;;;;;6.60;4.20;;;;;;;29.07;45.76;94471.06;6118976;23;20211;-87
2022/08/17 10:13:34;;;;;;;6.43;4.45;;;;;;;29.26;45.04;94487.31;6116072;23;20661;-86
2022/08/17 10:16:07;;;;;;;8.25;4.35;;;;;;;29.30;44.08;94478.59;6120119;23;20156;-90
2022/08/17 10:18:45;;;;;;;8.13;4.47;;;;;;;29.46;45.01;94484.81;6118805;23;20881;-88
2022/08/17 10:26:53;;;;;;;5.63;3.80;;;;;;;30.44;42.17;94481.31;6116944;23;20709;-84
2022/08/17 10:29:26;;;;;;;8.48;4.30;;;;;;;30.47;41.08;94490.56;6116320;23;20168;-85
2022/08/17 10:31:59;;;;;;;5.75;4.20;;;;;;;30.69;41.20;94481.88;6116436;23;20218;-80
2022/08/17 10:34:50;;;;;;;6.90;4.35;;;;;;;30.97;40.92;94479.84;6116543;23;20156;-86
2022/08/17 10:37:46;;;;;;;9.65;4.38;;;;;;;31.00;39.47;94489.13;6117601;23;20161;-86
2022/08/17 10:40:24;;;;;;;9.00;4.90;;;;;;;30.80;40.25;94483.66;6116422;23;20168;-84
2022/08/17 10:42:57;;;;;;;10.25;4.75;;;;;;;30.80;40.10;94482.88;6115950;23;20169;-83
2022/08/17 10:45:29;;;;;;;7.15;4.40;;;;;;;30.86;40.21;94484.19;6118820;23;20218;-86
2022/08/17 10:48:02;;;;;;;7.15;4.00;;;;;;;31.01;39.69;94477.25;6116201;23;20168;-84
2022/08/17 10:50:58;;;;;;;6.15;4.55;;;;;;;30.99;39.72;94474.91;6116786;23;20575;-84
2022/08/17 10:53:51;;;;;;;7.45;4.53;;;;;;;31.25;39.89;94471.63;6116585;23;20171;-84
2022/08/17 10:56:24;;;;;;;6.93;4.57;;;;;;;31.17;39.90;94465.31;6129700;23;20841;-82
2022/08/17 10:58:53;;;;;;;8.65;4.30;;;;;;;31.14;39.72;94460.63;6116281;23;20167;-85
2022/08/17 11:01:44;;;;;;;10.02;4.63;;;;;;;31.25;39.74;94464.34;6116007;23;20811;-84
2022/08/17 11:04:28;;;;;;;12.95;4.63;;;;;;;31.49;39.82;94466.00;6116808;23;20276;-87
2022/08/17 11:07:13;;;;;;;9.85;4.53;;;;;;;31.42;38.95;94447.03;6116967;23;20165;-84
2022/08/17 11:10:04;;;;;;;10.30;4.60;;;;;;;31.37;38.97;94464.19;6115462;23;20156;-85
2022/08/17 11:12:39;;;;;;;9.27;4.55;;;;;;;31.08;39.08;94472.03;6117288;23;20156;-85
2022/08/17 11:15:36;;;;;;;6.97;4.43;;;;;;;30.93;37.37;94470.94;6117652;23;20160;-86
2022/08/17 11:18:26;;;;;;;6.15;4.30;;;;;;;31.19;38.32;94465.75;6117663;23;20161;-87
2022/08/17 11:21:30;;;;;;;5.82;4.45;;;;;;;31.59;39.59;94470.03;6116793;23;20161;-84
2022/08/17 11:24:16;;;;;;;4.90;4.13;;;;;;;31.92;37.50;94472.97;6100932;23;20200;-84
2022/08/17 11:27:02;;;;;;;10.00;4.13;;;;;;;32.25;37.73;94462.41;6115557;23;20210;-80
2022/08/17 11:29:33;;;;;;;6.68;4.20;;;;;;;32.31;37.63;94466.38;6114649;23;20160;-81
2022/08/17 11:32:06;;;;;;;7.38;4.40;;;;;;;32.27;38.46;94453.97;6114609;23;20229;-83
2022/08/17 11:34:34;;;;;;;6.28;4.28;;;;;;;32.61;38.05;94452.25;6114326;23;20175;-89
2022/08/17 11:37:35;;;;;;;14.55;4.82;;;;;;;32.98;37.07;94461.25;6115867;23;20628;-83
2022/08/17 11:40:28;;;;;;;8.93;4.97;;;;;;;33.35;34.83;94464.06;6115347;23;20172;-83
2022/08/17 11:43:12;;;;;;;7.38;4.32;;;;;;;33.52;36.08;94476.97;6116284;23;20179;-81
2022/08/17 11:46:09;;;;;;;11.15;5.25;;;;;;;33.66;38.08;94485.25;6110622;23;20937;-82
2022/08/17 11:52:02;;;;;;;8.30;5.40;;;;;;;32.76;42.48;94476.31;6114135;23;20178;-84
2022/08/17 11:54:39;;;;;;;6.88;4.45;;;;;;;32.90;44.04;94489.97;6116534;23;20182;-85
2022/08/17 11:57:39;;;;;;;9.30;5.28;;;;;;;33.32;42.57;94497.13;6118012;23;20175;-89
2022/08/17 12:00:29;;;;;;;8.35;5.00;;;;;;;33.77;41.57;94496.19;6113548;23;20200;-81
2022/08/17 12:03:29;;;;;;;9.05;5.35;;;;;;;34.17;40.58;94499.69;6114231;23;20172;-83
2022/08/17 12:06:03;;;;;;;8.07;5.18;;;;;;;34.27;40.06;94506.34;6114055;23;20900;-81
2022/08/17 12:08:32;;;;;;;7.10;5.43;;;;;;;34.47;40.72;94505.00;6114497;23;20167;-89
2022/08/17 12:11:06;;;;;;;9.15;5.75;;;;;;;34.57;41.07;94504.31;6117307;23;20222;-82
2022/08/17 12:13:41;;;;;;;8.40;5.20;;;;;;;34.58;40.68;94503.19;6112550;23;20172;-80
2022/08/17 12:16:15;;;;;;;7.47;4.93;;;;;;;34.42;39.70;94502.66;6113637;23;20159;-77
2022/08/17 12:18:49;;;;;;;6.68;4.88;;;;;;;34.04;39.86;94505.72;6112858;23;20157;-79
2022/08/17 12:21:26;;;;;;;8.35;5.65;;;;;;;33.90;40.20;94503.66;6112001;23;20500;-79
2022/08/17 12:24:02;;;;;;;7.53;4.85;;;;;;;33.73;39.93;94498.06;6113461;23;20800;-84